Pagina principale
METAR-TAF:

METAR-TAF

Aeroporti :

Anchorage, Alaska, Stati Uniti

latitudine: 61-13N, longitudine: 149-51W, altezza: 42 m

Osservazione

Il bollettino è stato emesso 45 minuti fa, alle 00:53 UTC
Vento 4 kt da ovest
Temperature 14°C
Umidità 44%
Pressione 1001 hPa
Visibilità: 16.1 km
Nuvoloso ad un'altezza di 7500 ft

METAR: PAMR 260053Z 26004KT 10SM BKN075 14/02 A2957 RMK AO2 SLP013 T01390022

Ora: 17:38 (01:38 UTC)


TAF: mancante

Osservazioni e previsioni meteorologiche di più di 4000 aeroporti (messaggi METAR e TAF).

Le stazioni disponibili sono rappresentate dai dischi gialli e rossi sulla carta.

Puntare il mouse per vedere il nome della stazione.

Clicca sopra per visualizzare le osservazioni e previsioni meteorologiche.

Per cambiare la mappa : fare clic sui pulsanti verdi con una croce nera per ingrandire, il pulsante verde con un trattino per diminuire, o sulla freccia verde per le mappe adiacenti.


METAR-TAF: